sensor_id;sensor_type;location;lat;lon;timestamp;noise_LAeq;noise_LA_min;noise_LA_max;noise_LA01;noise_LA95
67398;Laerm;57728;50.448;18.824;2023-04-01T00:00:15;35.24;33.77;40.18;;
67398;Laerm;57728;50.448;18.824;2023-04-01T00:02:17;35.20;33.83;45.42;;
67398;Laerm;57728;50.448;18.824;2023-04-01T00:04:21;35.34;33.61;39.38;;
67398;Laerm;57728;50.448;18.824;2023-04-01T00:06:23;35.42;33.94;41.53;;
67398;Laerm;57728;50.448;18.824;2023-04-01T00:08:26;35.24;33.67;39.25;;
67398;Laerm;57728;50.448;18.824;2023-04-01T00:10:28;35.58;33.87;48.22;;
67398;Laerm;57728;50.448;18.824;2023-04-01T00:12:29;35.37;33.50;47.25;;
67398;Laerm;57728;50.448;18.824;2023-04-01T00:14:31;35.35;33.96;38.05;;
67398;Laerm;57728;50.448;18.824;2023-04-01T00:16:33;35.29;33.80;43.36;;
67398;Laerm;57728;50.448;18.824;2023-04-01T00:18:34;35.35;33.82;40.11;;
67398;Laerm;57728;50.448;18.824;2023-04-01T00:20:37;35.34;34.03;40.43;;
67398;Laerm;57728;50.448;18.824;2023-04-01T00:22:40;35.32;34.09;38.03;;
67398;Laerm;57728;50.448;18.824;2023-04-01T00:24:41;35.36;33.83;38.47;;
67398;Laerm;57728;50.448;18.824;2023-04-01T00:26:44;35.35;33.67;40.66;;
67398;Laerm;57728;50.448;18.824;2023-04-01T00:28:46;35.36;33.98;39.35;;
67398;Laerm;57728;50.448;18.824;2023-04-01T00:30:48;35.29;33.37;41.13;;
67398;Laerm;57728;50.448;18.824;2023-04-01T00:32:52;35.32;33.76;44.09;;
67398;Laerm;57728;50.448;18.824;2023-04-01T00:34:54;35.33;33.87;43.15;;
67398;Laerm;57728;50.448;18.824;2023-04-01T00:36:55;35.46;33.83;37.65;;
67398;Laerm;57728;50.448;18.824;2023-04-01T00:38:58;35.46;33.60;48.48;;
67398;Laerm;57728;50.448;18.824;2023-04-01T00:41:00;35.38;33.93;37.98;;
67398;Laerm;57728;50.448;18.824;2023-04-01T00:43:03;35.40;33.98;46.26;;
67398;Laerm;57728;50.448;18.824;2023-04-01T00:45:33;35.39;33.81;38.76;;
67398;Laerm;57728;50.448;18.824;2023-04-01T00:47:36;35.36;33.78;41.10;;
67398;Laerm;57728;50.448;18.824;2023-04-01T00:49:45;35.45;33.91;39.57;;
67398;Laerm;57728;50.448;18.824;2023-04-01T00:51:53;35.55;34.03;40.47;;
67398;Laerm;57728;50.448;18.824;2023-04-01T00:54:00;35.55;33.53;39.03;;
67398;Laerm;57728;50.448;18.824;2023-04-01T00:56:25;35.58;34.13;38.94;;
67398;Laerm;57728;50.448;18.824;2023-04-01T00:58:35;35.54;34.00;38.91;;
67398;Laerm;57728;50.448;18.824;2023-04-01T01:00:40;35.52;33.98;38.27;;
67398;Laerm;57728;50.448;18.824;2023-04-01T01:02:45;35.52;34.00;38.54;;
67398;Laerm;57728;50.448;18.824;2023-04-01T01:04:51;35.47;33.88;38.35;;
67398;Laerm;57728;50.448;18.824;2023-04-01T01:10:17;35.45;33.74;37.84;;
67398;Laerm;57728;50.448;18.824;2023-04-01T01:14:33;35.53;33.96;39.08;;
67398;Laerm;57728;50.448;18.824;2023-04-01T01:16:46;35.51;34.00;37.74;;
67398;Laerm;57728;50.448;18.824;2023-04-01T01:34:24;35.44;33.97;39.41;;
67398;Laerm;57728;50.448;18.824;2023-04-01T01:36:34;35.48;33.77;38.96;;
67398;Laerm;57728;50.448;18.824;2023-04-01T01:38:39;35.48;33.89;41.57;;
67398;Laerm;57728;50.448;18.824;2023-04-01T01:40:46;35.51;34.09;38.28;;
67398;Laerm;57728;50.448;18.824;2023-04-01T01:42:58;35.47;33.93;38.35;;
67398;Laerm;57728;50.448;18.824;2023-04-01T01:45:06;35.53;34.20;37.52;;
67398;Laerm;57728;50.448;18.824;2023-04-01T01:47:10;35.59;34.07;40.37;;
67398;Laerm;57728;50.448;18.824;2023-04-01T01:49:17;35.44;34.12;38.08;;
67398;Laerm;57728;50.448;18.824;2023-04-01T01:51:26;35.43;33.99;38.79;;
67398;Laerm;57728;50.448;18.824;2023-04-01T01:53:28;35.44;34.09;38.13;;
67398;Laerm;57728;50.448;18.824;2023-04-01T01:55:43;35.52;34.15;38.52;;
67398;Laerm;57728;50.448;18.824;2023-04-01T01:57:45;35.44;34.26;38.16;;
67398;Laerm;57728;50.448;18.824;2023-04-01T02:00:01;35.47;34.01;37.88;;
67398;Laerm;57728;50.448;18.824;2023-04-01T02:02:05;35.45;33.96;38.63;;
67398;Laerm;57728;50.448;18.824;2023-04-01T02:04:12;35.50;33.77;41.90;;
67398;Laerm;57728;50.448;18.824;2023-04-01T02:06:21;35.47;33.83;37.66;;
67398;Laerm;57728;50.448;18.824;2023-04-01T02:08:39;35.45;33.90;42.68;;
67398;Laerm;57728;50.448;18.824;2023-04-01T02:10:57;35.49;34.03;38.00;;
67398;Laerm;57728;50.448;18.824;2023-04-01T02:13:18;35.52;33.95;39.77;;
67398;Laerm;57728;50.448;18.824;2023-04-01T02:15:28;35.49;33.93;42.63;;
67398;Laerm;57728;50.448;18.824;2023-04-01T02:17:39;35.38;33.65;38.59;;
67398;Laerm;57728;50.448;18.824;2023-04-01T02:19:57;35.55;33.81;46.53;;
67398;Laerm;57728;50.448;18.824;2023-04-01T02:22:05;35.53;33.58;46.25;;
67398;Laerm;57728;50.448;18.824;2023-04-01T02:24:14;35.72;33.51;54.73;;
67398;Laerm;57728;50.448;18.824;2023-04-01T02:26:17;35.47;33.95;42.75;;
67398;Laerm;57728;50.448;18.824;2023-04-01T02:28:22;35.55;33.97;44.67;;
67398;Laerm;57728;50.448;18.824;2023-04-01T02:30:29;35.47;33.93;43.37;;
67398;Laerm;57728;50.448;18.824;2023-04-01T02:32:40;35.44;33.85;45.87;;
67398;Laerm;57728;50.448;18.824;2023-04-01T02:34:47;35.41;34.02;40.41;;
67398;Laerm;57728;50.448;18.824;2023-04-01T02:36:50;35.37;33.71;41.15;;
67398;Laerm;57728;50.448;18.824;2023-04-01T02:39:00;35.74;33.97;51.53;;
67398;Laerm;57728;50.448;18.824;2023-04-01T02:41:03;35.64;33.75;48.74;;
67398;Laerm;57728;50.448;18.824;2023-04-01T02:43:07;35.55;33.99;47.11;;
67398;Laerm;57728;50.448;18.824;2023-04-01T02:45:10;36.01;33.92;45.90;;
67398;Laerm;57728;50.448;18.824;2023-04-01T02:47:11;35.49;34.07;42.09;;
67398;Laerm;57728;50.448;18.824;2023-04-01T02:49:14;35.66;33.76;39.63;;
67398;Laerm;57728;50.448;18.824;2023-04-01T02:51:15;35.65;33.90;41.71;;
67398;Laerm;57728;50.448;18.824;2023-04-01T02:53:17;35.78;33.97;46.95;;
67398;Laerm;57728;50.448;18.824;2023-04-01T02:55:19;35.90;34.20;41.94;;
67398;Laerm;57728;50.448;18.824;2023-04-01T02:57:21;35.75;33.93;42.62;;
67398;Laerm;57728;50.448;18.824;2023-04-01T02:59:23;35.67;34.03;43.72;;
67398;Laerm;57728;50.448;18.824;2023-04-01T03:01:26;35.71;33.91;46.71;;
67398;Laerm;57728;50.448;18.824;2023-04-01T03:03:27;35.82;34.01;45.57;;
67398;Laerm;57728;50.448;18.824;2023-04-01T03:05:28;35.61;33.98;42.18;;
67398;Laerm;57728;50.448;18.824;2023-04-01T03:07:31;35.58;33.89;38.42;;
67398;Laerm;57728;50.448;18.824;2023-04-01T03:09:32;35.79;33.98;46.03;;
67398;Laerm;57728;50.448;18.824;2023-04-01T03:11:34;35.84;34.07;46.77;;
67398;Laerm;57728;50.448;18.824;2023-04-01T03:13:37;36.16;33.99;51.24;;
67398;Laerm;57728;50.448;18.824;2023-04-01T03:15:38;35.96;34.07;42.72;;
67398;Laerm;57728;50.448;18.824;2023-04-01T03:17:41;36.03;33.98;43.62;;
67398;Laerm;57728;50.448;18.824;2023-04-01T03:19:43;36.24;34.32;43.11;;
67398;Laerm;57728;50.448;18.824;2023-04-01T03:21:45;36.07;34.02;49.56;;
67398;Laerm;57728;50.448;18.824;2023-04-01T03:23:47;35.61;34.07;41.43;;
67398;Laerm;57728;50.448;18.824;2023-04-01T03:25:50;35.74;33.94;47.32;;
67398;Laerm;57728;50.448;18.824;2023-04-01T03:27:51;35.71;34.12;43.82;;
67398;Laerm;57728;50.448;18.824;2023-04-01T03:29:53;35.74;33.73;45.54;;
67398;Laerm;57728;50.448;18.824;2023-04-01T03:31:56;37.31;33.84;50.08;;
67398;Laerm;57728;50.448;18.824;2023-04-01T03:33:59;36.62;33.82;48.42;;
67398;Laerm;57728;50.448;18.824;2023-04-01T03:36:02;36.02;34.20;46.42;;
67398;Laerm;57728;50.448;18.824;2023-04-01T03:38:10;35.91;34.19;45.53;;
67398;Laerm;57728;50.448;18.824;2023-04-01T03:40:12;36.05;34.37;47.40;;
67398;Laerm;57728;50.448;18.824;2023-04-01T03:42:14;36.25;33.99;50.04;;
67398;Laerm;57728;50.448;18.824;2023-04-01T03:44:16;36.18;33.91;45.80;;
67398;Laerm;57728;50.448;18.824;2023-04-01T03:46:20;35.96;34.20;44.47;;
67398;Laerm;57728;50.448;18.824;2023-04-01T03:48:22;35.85;34.29;41.97;;
67398;Laerm;57728;50.448;18.824;2023-04-01T03:50:24;36.00;34.10;43.52;;
67398;Laerm;57728;50.448;18.824;2023-04-01T03:52:25;36.02;34.32;50.23;;
67398;Laerm;57728;50.448;18.824;2023-04-01T03:54:28;36.02;34.11;44.12;;
67398;Laerm;57728;50.448;18.824;2023-04-01T03:56:30;35.88;34.18;41.78;;
67398;Laerm;57728;50.448;18.824;2023-04-01T03:58:31;35.78;34.17;42.58;;
67398;Laerm;57728;50.448;18.824;2023-04-01T04:00:34;36.11;34.18;45.58;;
67398;Laerm;57728;50.448;18.824;2023-04-01T04:02:37;35.92;34.04;46.23;;
67398;Laerm;57728;50.448;18.824;2023-04-01T04:04:38;35.80;33.98;38.23;;
67398;Laerm;57728;50.448;18.824;2023-04-01T04:06:40;35.82;34.31;41.14;;
67398;Laerm;57728;50.448;18.824;2023-04-01T04:08:43;36.08;33.81;43.62;;
67398;Laerm;57728;50.448;18.824;2023-04-01T04:10:46;35.94;34.24;46.42;;
67398;Laerm;57728;50.448;18.824;2023-04-01T04:12:50;35.79;33.97;46.77;;
67398;Laerm;57728;50.448;18.824;2023-04-01T04:14:55;35.83;33.89;49.78;;
67398;Laerm;57728;50.448;18.824;2023-04-01T04:16:56;35.76;33.99;41.87;;
67398;Laerm;57728;50.448;18.824;2023-04-01T04:18:58;35.97;34.02;45.77;;
67398;Laerm;57728;50.448;18.824;2023-04-01T04:21:03;37.02;34.31;43.69;;
67398;Laerm;57728;50.448;18.824;2023-04-01T04:23:04;36.00;34.02;43.69;;
67398;Laerm;57728;50.448;18.824;2023-04-01T04:25:08;36.11;34.30;47.20;;
67398;Laerm;57728;50.448;18.824;2023-04-01T04:27:11;35.88;34.09;47.85;;
67398;Laerm;57728;50.448;18.824;2023-04-01T04:29:22;35.84;33.92;40.59;;
67398;Laerm;57728;50.448;18.824;2023-04-01T04:31:29;35.91;34.16;39.86;;
67398;Laerm;57728;50.448;18.824;2023-04-01T04:33:40;35.92;34.13;41.79;;
67398;Laerm;57728;50.448;18.824;2023-04-01T04:35:42;36.83;34.23;43.29;;
67398;Laerm;57728;50.448;18.824;2023-04-01T04:37:44;37.52;34.47;45.27;;
67398;Laerm;57728;50.448;18.824;2023-04-01T04:39:46;35.75;34.09;44.34;;
67398;Laerm;57728;50.448;18.824;2023-04-01T04:41:47;35.82;34.13;38.44;;
67398;Laerm;57728;50.448;18.824;2023-04-01T04:43:55;35.85;34.37;40.34;;
67398;Laerm;57728;50.448;18.824;2023-04-01T04:46:06;36.03;34.39;40.72;;
67398;Laerm;57728;50.448;18.824;2023-04-01T04:48:09;35.99;34.42;44.38;;
67398;Laerm;57728;50.448;18.824;2023-04-01T04:50:12;36.09;34.33;43.73;;
67398;Laerm;57728;50.448;18.824;2023-04-01T04:52:16;36.00;34.52;46.31;;
67398;Laerm;57728;50.448;18.824;2023-04-01T04:54:17;35.86;34.13;40.06;;
67398;Laerm;57728;50.448;18.824;2023-04-01T04:56:31;35.82;34.16;39.37;;
67398;Laerm;57728;50.448;18.824;2023-04-01T04:58:41;35.88;34.06;40.69;;
67398;Laerm;57728;50.448;18.824;2023-04-01T05:00:45;36.00;34.27;42.42;;
67398;Laerm;57728;50.448;18.824;2023-04-01T05:02:54;36.14;34.23;40.52;;
67398;Laerm;57728;50.448;18.824;2023-04-01T05:04:56;36.91;34.37;49.88;;
67398;Laerm;57728;50.448;18.824;2023-04-01T05:06:58;36.76;34.69;47.26;;
67398;Laerm;57728;50.448;18.824;2023-04-01T05:08:59;36.15;34.61;44.84;;
67398;Laerm;57728;50.448;18.824;2023-04-01T05:11:03;36.04;34.45;43.60;;
67398;Laerm;57728;50.448;18.824;2023-04-01T05:13:07;36.06;34.19;40.61;;
67398;Laerm;57728;50.448;18.824;2023-04-01T05:15:09;36.14;34.51;41.15;;
67398;Laerm;57728;50.448;18.824;2023-04-01T05:17:13;36.14;34.33;41.04;;
67398;Laerm;57728;50.448;18.824;2023-04-01T05:19:15;37.01;34.44;48.47;;
67398;Laerm;57728;50.448;18.824;2023-04-01T05:21:17;36.50;34.25;44.10;;
67398;Laerm;57728;50.448;18.824;2023-04-01T05:23:22;36.48;34.12;43.59;;
67398;Laerm;57728;50.448;18.824;2023-04-01T05:25:24;36.17;34.31;46.51;;
67398;Laerm;57728;50.448;18.824;2023-04-01T05:27:27;36.25;33.86;45.93;;
67398;Laerm;57728;50.448;18.824;2023-04-01T05:29:29;36.03;34.25;41.28;;
67398;Laerm;57728;50.448;18.824;2023-04-01T05:31:41;37.37;34.80;45.11;;
67398;Laerm;57728;50.448;18.824;2023-04-01T05:33:43;36.96;34.14;48.72;;
67398;Laerm;57728;50.448;18.824;2023-04-01T05:35:49;36.90;34.03;50.76;;
67398;Laerm;57728;50.448;18.824;2023-04-01T05:37:51;35.96;33.97;43.54;;
67398;Laerm;57728;50.448;18.824;2023-04-01T05:39:52;36.15;34.26;47.46;;
67398;Laerm;57728;50.448;18.824;2023-04-01T05:41:58;36.21;34.27;42.36;;
67398;Laerm;57728;50.448;18.824;2023-04-01T05:44:03;36.27;34.02;48.52;;
67398;Laerm;57728;50.448;18.824;2023-04-01T05:46:14;35.86;34.15;42.87;;
67398;Laerm;57728;50.448;18.824;2023-04-01T05:48:29;35.92;34.19;48.04;;
67398;Laerm;57728;50.448;18.824;2023-04-01T05:50:31;35.82;34.26;44.04;;
67398;Laerm;57728;50.448;18.824;2023-04-01T05:52:32;36.09;34.32;43.27;;
67398;Laerm;57728;50.448;18.824;2023-04-01T05:54:34;35.83;34.31;38.65;;
67398;Laerm;57728;50.448;18.824;2023-04-01T05:56:37;36.11;34.34;42.74;;
67398;Laerm;57728;50.448;18.824;2023-04-01T05:58:39;35.96;34.26;44.47;;
67398;Laerm;57728;50.448;18.824;2023-04-01T06:00:44;37.09;34.29;44.42;;
67398;Laerm;57728;50.448;18.824;2023-04-01T06:02:49;36.14;34.14;42.58;;
67398;Laerm;57728;50.448;18.824;2023-04-01T06:05:23;36.18;34.21;51.70;;
67398;Laerm;57728;50.448;18.824;2023-04-01T06:07:28;36.43;34.12;44.83;;
67398;Laerm;57728;50.448;18.824;2023-04-01T06:09:30;36.02;34.07;47.16;;
67398;Laerm;57728;50.448;18.824;2023-04-01T06:12:00;35.82;34.13;40.37;;
67398;Laerm;57728;50.448;18.824;2023-04-01T06:20:26;36.98;34.31;49.18;;
67398;Laerm;57728;50.448;18.824;2023-04-01T06:25:22;36.37;34.33;57.79;;
67398;Laerm;57728;50.448;18.824;2023-04-01T06:32:56;36.03;33.79;50.87;;
67398;Laerm;57728;50.448;18.824;2023-04-01T06:41:01;36.71;34.22;53.18;;
67398;Laerm;57728;50.448;18.824;2023-04-01T06:51:59;36.20;34.01;59.95;;
67398;Laerm;57728;50.448;18.824;2023-04-01T06:55:00;36.43;34.39;56.64;;
67398;Laerm;57728;50.448;18.824;2023-04-01T06:57:47;36.45;34.17;48.93;;
67398;Laerm;57728;50.448;18.824;2023-04-01T06:59:54;35.69;34.00;48.89;;
67398;Laerm;57728;50.448;18.824;2023-04-01T07:04:26;36.39;34.25;53.19;;
67398;Laerm;57728;50.448;18.824;2023-04-01T07:07:02;37.76;34.33;67.55;;
67398;Laerm;57728;50.448;18.824;2023-04-01T07:09:23;38.32;34.69;65.49;;
67398;Laerm;57728;50.448;18.824;2023-04-01T07:11:45;40.32;34.74;69.40;;
67398;Laerm;57728;50.448;18.824;2023-04-01T07:14:37;39.82;34.72;68.99;;
67398;Laerm;57728;50.448;18.824;2023-04-01T07:17:20;39.15;34.26;63.63;;
67398;Laerm;57728;50.448;18.824;2023-04-01T07:19:59;39.31;34.73;63.08;;
67398;Laerm;57728;50.448;18.824;2023-04-01T07:24:46;38.83;34.52;60.99;;
67398;Laerm;57728;50.448;18.824;2023-04-01T07:26:55;38.23;34.41;52.67;;
67398;Laerm;57728;50.448;18.824;2023-04-01T07:29:00;39.09;34.27;52.61;;
67398;Laerm;57728;50.448;18.824;2023-04-01T07:33:39;38.91;34.16;62.54;;
67398;Laerm;57728;50.448;18.824;2023-04-01T07:43:26;38.11;34.05;52.84;;
67398;Laerm;57728;50.448;18.824;2023-04-01T07:48:57;38.26;34.12;59.22;;
67398;Laerm;57728;50.448;18.824;2023-04-01T07:51:49;38.26;33.87;54.71;;
67398;Laerm;57728;50.448;18.824;2023-04-01T08:01:02;38.45;34.00;58.36;;
67398;Laerm;57728;50.448;18.824;2023-04-01T08:06:24;39.55;34.14;55.84;;
67398;Laerm;57728;50.448;18.824;2023-04-01T08:08:52;38.93;33.99;51.41;;
67398;Laerm;57728;50.448;18.824;2023-04-01T08:22:43;37.28;34.24;52.11;;
67398;Laerm;57728;50.448;18.824;2023-04-01T08:25:05;38.47;33.56;61.61;;
67398;Laerm;57728;50.448;18.824;2023-04-01T08:32:32;36.65;33.60;53.49;;
67398;Laerm;57728;50.448;18.824;2023-04-01T08:34:42;36.04;33.28;55.48;;
67398;Laerm;57728;50.448;18.824;2023-04-01T08:37:04;36.66;33.58;55.65;;
67398;Laerm;57728;50.448;18.824;2023-04-01T08:39:17;39.01;33.62;69.54;;
67398;Laerm;57728;50.448;18.824;2023-04-01T08:49:37;36.06;33.36;51.12;;
67398;Laerm;57728;50.448;18.824;2023-04-01T08:57:53;36.22;33.59;56.45;;
67398;Laerm;57728;50.448;18.824;2023-04-01T09:00:13;38.33;33.55;70.10;;
67398;Laerm;57728;50.448;18.824;2023-04-01T09:06:33;38.49;33.62;62.31;;
67398;Laerm;57728;50.448;18.824;2023-04-01T09:20:24;40.43;34.07;69.08;;
67398;Laerm;57728;50.448;18.824;2023-04-01T09:23:23;39.34;32.99;60.36;;
67398;Laerm;57728;50.448;18.824;2023-04-01T09:28:20;37.81;33.68;54.97;;
67398;Laerm;57728;50.448;18.824;2023-04-01T09:44:21;36.98;34.00;58.91;;
67398;Laerm;57728;50.448;18.824;2023-04-01T09:59:30;37.85;34.50;50.30;;
67398;Laerm;57728;50.448;18.824;2023-04-01T10:05:36;37.41;34.10;53.83;;
67398;Laerm;57728;50.448;18.824;2023-04-01T10:16:08;37.57;34.07;52.05;;
67398;Laerm;57728;50.448;18.824;2023-04-01T10:19:03;37.23;34.13;55.36;;
67398;Laerm;57728;50.448;18.824;2023-04-01T10:28:56;39.20;34.57;59.50;;
67398;Laerm;57728;50.448;18.824;2023-04-01T10:31:35;38.85;34.47;57.96;;
67398;Laerm;57728;50.448;18.824;2023-04-01T10:34:25;37.40;34.09;56.22;;
67398;Laerm;57728;50.448;18.824;2023-04-01T10:36:59;37.42;34.04;51.28;;
67398;Laerm;57728;50.448;18.824;2023-04-01T11:05:17;38.99;33.73;58.17;;
67398;Laerm;57728;50.448;18.824;2023-04-01T11:10:33;38.51;33.64;60.79;;
67398;Laerm;57728;50.448;18.824;2023-04-01T11:23:04;36.28;33.73;52.95;;
67398;Laerm;57728;50.448;18.824;2023-04-01T11:25:40;35.64;33.65;51.01;;
67398;Laerm;57728;50.448;18.824;2023-04-01T11:42:48;36.67;33.69;49.77;;
67398;Laerm;57728;50.448;18.824;2023-04-01T11:45:46;36.30;33.91;48.69;;
67398;Laerm;57728;50.448;18.824;2023-04-01T12:01:59;36.77;33.37;54.64;;
67398;Laerm;57728;50.448;18.824;2023-04-01T12:21:35;36.82;33.36;49.18;;
67398;Laerm;57728;50.448;18.824;2023-04-01T12:37:19;35.42;33.53;51.14;;
67398;Laerm;57728;50.448;18.824;2023-04-01T12:50:05;40.42;34.54;66.00;;
67398;Laerm;57728;50.448;18.824;2023-04-01T12:55:39;38.65;34.33;62.99;;
67398;Laerm;57728;50.448;18.824;2023-04-01T13:06:42;37.75;34.97;51.01;;
67398;Laerm;57728;50.448;18.824;2023-04-01T13:16:59;35.94;34.02;54.04;;
67398;Laerm;57728;50.448;18.824;2023-04-01T13:26:34;35.94;33.91;49.36;;
67398;Laerm;57728;50.448;18.824;2023-04-01T13:28:59;35.67;33.45;46.98;;
67398;Laerm;57728;50.448;18.824;2023-04-01T13:34:30;36.20;33.08;51.18;;
67398;Laerm;57728;50.448;18.824;2023-04-01T13:37:15;43.86;33.79;70.90;;
67398;Laerm;57728;50.448;18.824;2023-04-01T14:01:06;36.93;34.09;50.38;;
67398;Laerm;57728;50.448;18.824;2023-04-01T14:03:28;39.96;34.20;64.65;;
67398;Laerm;57728;50.448;18.824;2023-04-01T14:05:50;38.44;34.04;61.65;;
67398;Laerm;57728;50.448;18.824;2023-04-01T14:10:50;38.73;34.37;66.84;;
67398;Laerm;57728;50.448;18.824;2023-04-01T14:13:26;38.14;34.37;56.95;;
67398;Laerm;57728;50.448;18.824;2023-04-01T14:16:04;36.82;33.85;53.16;;
67398;Laerm;57728;50.448;18.824;2023-04-01T14:20:33;36.68;33.84;47.24;;
67398;Laerm;57728;50.448;18.824;2023-04-01T14:23:07;36.63;34.33;61.23;;
67398;Laerm;57728;50.448;18.824;2023-04-01T14:25:45;37.55;34.63;47.82;;
67398;Laerm;57728;50.448;18.824;2023-04-01T14:51:10;36.93;34.12;47.83;;
67398;Laerm;57728;50.448;18.824;2023-04-01T14:56:07;35.62;34.29;40.08;;
67398;Laerm;57728;50.448;18.824;2023-04-01T14:58:18;35.61;34.06;41.25;;
67398;Laerm;57728;50.448;18.824;2023-04-01T15:00:21;36.01;34.06;52.65;;
67398;Laerm;57728;50.448;18.824;2023-04-01T15:08:05;35.82;33.87;42.58;;
67398;Laerm;57728;50.448;18.824;2023-04-01T15:11:10;35.85;33.81;43.97;;
67398;Laerm;57728;50.448;18.824;2023-04-01T15:16:46;35.51;33.54;48.99;;
67398;Laerm;57728;50.448;18.824;2023-04-01T15:43:50;35.47;33.59;44.20;;
67398;Laerm;57728;50.448;18.824;2023-04-01T15:55:59;35.75;33.91;43.66;;
67398;Laerm;57728;50.448;18.824;2023-04-01T15:58:19;35.57;33.88;41.98;;
67398;Laerm;57728;50.448;18.824;2023-04-01T16:00:42;35.78;33.80;42.04;;
67398;Laerm;57728;50.448;18.824;2023-04-01T16:08:11;36.29;34.01;48.23;;
67398;Laerm;57728;50.448;18.824;2023-04-01T16:13:34;35.74;33.95;48.31;;
67398;Laerm;57728;50.448;18.824;2023-04-01T16:21:06;35.57;33.54;44.16;;
67398;Laerm;57728;50.448;18.824;2023-04-01T16:25:44;35.64;33.67;47.28;;
67398;Laerm;57728;50.448;18.824;2023-04-01T16:30:40;37.11;34.16;50.90;;
67398;Laerm;57728;50.448;18.824;2023-04-01T16:33:09;35.94;33.84;45.89;;
67398;Laerm;57728;50.448;18.824;2023-04-01T16:35:47;35.82;33.85;47.77;;
67398;Laerm;57728;50.448;18.824;2023-04-01T16:38:20;35.91;33.96;43.91;;
67398;Laerm;57728;50.448;18.824;2023-04-01T16:47:38;36.19;34.16;56.11;;
67398;Laerm;57728;50.448;18.824;2023-04-01T16:49:53;35.87;34.41;42.08;;
67398;Laerm;57728;50.448;18.824;2023-04-01T17:04:44;35.97;33.93;45.36;;
67398;Laerm;57728;50.448;18.824;2023-04-01T17:17:05;35.98;33.75;43.50;;
67398;Laerm;57728;50.448;18.824;2023-04-01T17:33:04;39.31;34.76;70.45;;
67398;Laerm;57728;50.448;18.824;2023-04-01T17:38:08;42.69;34.81;75.76;;
67398;Laerm;57728;50.448;18.824;2023-04-01T17:41:00;39.87;35.19;63.41;;
67398;Laerm;57728;50.448;18.824;2023-04-01T17:43:48;40.26;34.71;71.76;;
67398;Laerm;57728;50.448;18.824;2023-04-01T17:46:10;37.74;34.52;63.20;;
67398;Laerm;57728;50.448;18.824;2023-04-01T17:48:45;37.00;34.56;58.63;;
67398;Laerm;57728;50.448;18.824;2023-04-01T17:51:36;36.92;34.32;52.13;;
67398;Laerm;57728;50.448;18.824;2023-04-01T17:59:23;37.17;34.06;54.74;;
67398;Laerm;57728;50.448;18.824;2023-04-01T18:05:04;37.23;33.85;55.44;;
67398;Laerm;57728;50.448;18.824;2023-04-01T18:07:49;39.83;34.20;72.25;;
67398;Laerm;57728;50.448;18.824;2023-04-01T18:10:20;36.92;34.13;57.06;;
67398;Laerm;57728;50.448;18.824;2023-04-01T18:13:42;36.88;34.11;60.43;;
67398;Laerm;57728;50.448;18.824;2023-04-01T18:18:17;36.05;34.59;52.16;;
67398;Laerm;57728;50.448;18.824;2023-04-01T18:20:58;36.38;34.34;50.36;;
67398;Laerm;57728;50.448;18.824;2023-04-01T18:23:36;36.50;34.13;50.28;;
67398;Laerm;57728;50.448;18.824;2023-04-01T18:25:47;36.71;34.08;48.28;;
67398;Laerm;57728;50.448;18.824;2023-04-01T18:30:34;36.78;34.16;54.72;;
67398;Laerm;57728;50.448;18.824;2023-04-01T18:33:01;36.99;34.19;50.92;;
67398;Laerm;57728;50.448;18.824;2023-04-01T18:40:28;36.40;34.09;52.20;;
67398;Laerm;57728;50.448;18.824;2023-04-01T18:45:14;36.87;34.20;61.17;;
67398;Laerm;57728;50.448;18.824;2023-04-01T18:47:44;37.18;34.22;60.28;;
67398;Laerm;57728;50.448;18.824;2023-04-01T18:52:43;36.14;34.34;49.74;;
67398;Laerm;57728;50.448;18.824;2023-04-01T18:57:18;36.37;34.15;44.39;;
67398;Laerm;57728;50.448;18.824;2023-04-01T18:59:41;36.14;34.32;43.88;;
67398;Laerm;57728;50.448;18.824;2023-04-01T19:02:33;36.07;33.94;54.42;;
67398;Laerm;57728;50.448;18.824;2023-04-01T19:05:09;36.11;34.08;49.48;;
67398;Laerm;57728;50.448;18.824;2023-04-01T19:09:48;36.43;34.33;55.78;;
67398;Laerm;57728;50.448;18.824;2023-04-01T19:14:59;36.42;34.35;51.03;;
67398;Laerm;57728;50.448;18.824;2023-04-01T19:17:40;36.44;34.34;54.19;;
67398;Laerm;57728;50.448;18.824;2023-04-01T19:22:57;36.61;34.42;51.09;;
67398;Laerm;57728;50.448;18.824;2023-04-01T19:25:27;36.74;34.75;51.96;;
67398;Laerm;57728;50.448;18.824;2023-04-01T19:27:42;36.48;34.77;45.91;;
67398;Laerm;57728;50.448;18.824;2023-04-01T19:37:33;36.51;34.64;49.90;;
67398;Laerm;57728;50.448;18.824;2023-04-01T19:45:27;36.49;35.01;43.62;;
67398;Laerm;57728;50.448;18.824;2023-04-01T19:52:35;36.26;34.66;43.44;;
67398;Laerm;57728;50.448;18.824;2023-04-01T19:55:11;36.21;34.72;42.30;;
67398;Laerm;57728;50.448;18.824;2023-04-01T20:00:20;36.15;34.59;44.35;;
67398;Laerm;57728;50.448;18.824;2023-04-01T20:03:01;36.16;34.42;41.72;;
67398;Laerm;57728;50.448;18.824;2023-04-01T20:07:52;36.68;34.29;43.99;;
67398;Laerm;57728;50.448;18.824;2023-04-01T20:10:14;36.41;34.53;42.97;;
67398;Laerm;57728;50.448;18.824;2023-04-01T20:12:53;36.28;34.59;43.07;;
67398;Laerm;57728;50.448;18.824;2023-04-01T20:17:47;36.33;34.64;43.78;;
67398;Laerm;57728;50.448;18.824;2023-04-01T20:24:49;36.12;34.64;43.95;;
67398;Laerm;57728;50.448;18.824;2023-04-01T20:27:32;36.12;34.19;42.58;;
67398;Laerm;57728;50.448;18.824;2023-04-01T20:30:04;36.29;34.43;42.38;;
67398;Laerm;57728;50.448;18.824;2023-04-01T20:35:13;36.09;34.63;39.68;;
67398;Laerm;57728;50.448;18.824;2023-04-01T20:37:32;36.20;34.64;42.53;;
67398;Laerm;57728;50.448;18.824;2023-04-01T20:40:41;36.16;34.59;41.41;;
67398;Laerm;57728;50.448;18.824;2023-04-01T20:50:29;36.19;34.59;42.96;;
67398;Laerm;57728;50.448;18.824;2023-04-01T20:55:52;36.21;34.70;41.47;;
67398;Laerm;57728;50.448;18.824;2023-04-01T21:00:53;36.20;34.63;41.96;;
67398;Laerm;57728;50.448;18.824;2023-04-01T21:06:09;36.12;34.45;41.68;;
67398;Laerm;57728;50.448;18.824;2023-04-01T21:11:20;36.09;34.56;39.78;;
67398;Laerm;57728;50.448;18.824;2023-04-01T21:16:39;36.35;34.83;43.56;;
67398;Laerm;57728;50.448;18.824;2023-04-01T21:21:39;36.05;34.68;41.77;;
67398;Laerm;57728;50.448;18.824;2023-04-01T21:28:35;36.07;34.77;39.01;;
67398;Laerm;57728;50.448;18.824;2023-04-01T21:31:22;36.08;34.70;43.18;;
67398;Laerm;57728;50.448;18.824;2023-04-01T21:41:30;36.04;34.65;39.30;;
67398;Laerm;57728;50.448;18.824;2023-04-01T21:46:44;36.17;34.33;43.17;;
67398;Laerm;57728;50.448;18.824;2023-04-01T21:51:33;36.13;34.24;40.47;;
67398;Laerm;57728;50.448;18.824;2023-04-01T22:05:11;36.06;34.83;40.45;;
67398;Laerm;57728;50.448;18.824;2023-04-01T22:07:32;36.03;34.62;42.17;;
67398;Laerm;57728;50.448;18.824;2023-04-01T22:15:11;36.10;34.53;41.37;;
67398;Laerm;57728;50.448;18.824;2023-04-01T22:19:57;35.99;34.60;40.39;;
67398;Laerm;57728;50.448;18.824;2023-04-01T22:25:17;35.92;34.70;41.18;;
67398;Laerm;57728;50.448;18.824;2023-04-01T22:28:05;36.14;34.63;38.62;;